Time;durP1;ratioP1;P1;durP2;ratioP2;P2;SDS_P1;SDS_P2;PMS_P1;PMS_P2;Temp;Humidity;BMP_temperature;BMP_pressure;BME280_temperature;BME280_humidity;BME280_pressure;Samples;Min_cycle;Max_cycle;Signal;HPM_P1;HPM_P2
2022/07/11 00:00:03;;;;;;;7.47;2.17;;;;;;;;;;6073035;23;20030;-81
2022/07/11 00:02:30;;;;;;;6.65;2.13;;;;;;;;;;6071886;23;20059;-81
2022/07/11 00:04:58;;;;;;;8.40;2.30;;;;;;;;;;6069513;23;20205;-81
2022/07/11 00:07:25;;;;;;;8.38;2.80;;;;;;;;;;6072205;23;20019;-80
2022/07/11 00:09:52;;;;;;;11.85;2.70;;;;;;;;;;6071833;23;20855;-81
2022/07/11 00:12:21;;;;;;;11.75;2.80;;;;;;;;;;6072147;23;20027;-80
2022/07/11 00:14:48;;;;;;;9.23;2.80;;;;;;;;;;6071290;23;20034;-80
2022/07/11 00:17:15;;;;;;;8.20;2.25;;;;;;;;;;6072318;23;20023;-82
2022/07/11 00:19:43;;;;;;;10.25;2.40;;;;;;;;;;6071458;23;20023;-81
2022/07/11 00:22:10;;;;;;;13.25;2.50;;;;;;;;;;6045996;23;20110;-81
2022/07/11 00:24:37;;;;;;;13.32;2.75;;;;;;;;;;6071668;23;20079;-81
2022/07/11 00:27:07;;;;;;;13.50;2.40;;;;;;;;;;6071807;23;20034;-80
2022/07/11 00:29:34;;;;;;;9.63;2.38;;;;;;;;;;6071255;23;20492;-81
2022/07/11 00:32:02;;;;;;;11.30;2.47;;;;;;;;;;6071578;23;20083;-81
2022/07/11 00:34:29;;;;;;;10.02;2.85;;;;;;;;;;6071473;23;20027;-81
2022/07/11 00:36:56;;;;;;;11.60;2.60;;;;;;;;;;6071987;23;20023;-81
2022/07/11 00:39:23;;;;;;;9.70;2.35;;;;;;;;;;6071688;23;20024;-82
2022/07/11 00:41:50;;;;;;;12.13;2.30;;;;;;;;;;6072260;23;20760;-81
2022/07/11 00:44:17;;;;;;;9.25;2.30;;;;;;;;;;6072460;23;20106;-81
2022/07/11 00:46:47;;;;;;;7.50;1.98;;;;;;;;;;6072584;23;20024;-80
2022/07/11 00:49:14;;;;;;;10.88;2.47;;;;;;;;;;6046440;23;20023;-81
2022/07/11 00:51:42;;;;;;;10.45;2.33;;;;;;;;;;6071955;23;20031;-81
2022/07/11 00:54:10;;;;;;;6.90;2.20;;;;;;;;;;6045725;23;20042;-81
2022/07/11 00:56:38;;;;;;;8.43;2.17;;;;;;;;;;6071586;23;20110;-81
2022/07/11 00:59:05;;;;;;;8.80;2.30;;;;;;;;;;6071038;23;20047;-81
2022/07/11 01:01:34;;;;;;;7.30;2.47;;;;;;;;;;6069090;23;20862;-81
2022/07/11 01:04:02;;;;;;;9.23;2.40;;;;;;;;;;6071529;23;20026;-81
2022/07/11 01:06:30;;;;;;;8.25;3.03;;;;;;;;;;6071581;23;20031;-81
2022/07/11 01:08:57;;;;;;;14.85;2.60;;;;;;;;;;6072134;23;20054;-81
2022/07/11 01:11:24;;;;;;;7.68;2.55;;;;;;;;;;6071742;23;20466;-81
2022/07/11 01:13:51;;;;;;;13.77;2.25;;;;;;;;;;6071655;23;20875;-81
2022/07/11 01:16:22;;;;;;;11.57;2.05;;;;;;;;;;6070472;23;20023;-81
2022/07/11 01:18:53;;;;;;;6.85;2.15;;;;;;;;;;6072039;23;20024;-80
2022/07/11 01:21:21;;;;;;;7.53;1.65;;;;;;;;;;6072325;23;20061;-81
2022/07/11 01:23:48;;;;;;;8.25;2.20;;;;;;;;;;6072501;23;20019;-81
2022/07/11 01:26:16;;;;;;;10.20;2.20;;;;;;;;;;6072184;23;20079;-81
2022/07/11 01:28:44;;;;;;;7.15;2.17;;;;;;;;;;6071758;23;20109;-81
2022/07/11 01:31:12;;;;;;;8.68;2.22;;;;;;;;;;6070871;23;20047;-82
2022/07/11 01:33:40;;;;;;;6.78;2.15;;;;;;;;;;6072607;23;20031;-81
2022/07/11 01:36:07;;;;;;;8.77;1.98;;;;;;;;;;6072255;23;20023;-81
2022/07/11 01:38:35;;;;;;;6.50;2.03;;;;;;;;;;6071794;23;20819;-81
2022/07/11 01:41:02;;;;;;;9.32;2.13;;;;;;;;;;6047049;23;20032;-81
2022/07/11 01:43:29;;;;;;;7.45;2.00;;;;;;;;;;6076839;23;20038;-81
2022/07/11 01:45:57;;;;;;;6.45;1.73;;;;;;;;;;6075858;23;20850;-84
2022/07/11 01:48:24;;;;;;;6.07;1.90;;;;;;;;;;6072986;23;20034;-81
2022/07/11 01:50:52;;;;;;;7.00;2.00;;;;;;;;;;6071931;23;20122;-81
2022/07/11 01:53:19;;;;;;;5.88;2.10;;;;;;;;;;6072275;23;20023;-80
2022/07/11 01:55:46;;;;;;;6.97;2.08;;;;;;;;;;6071064;23;20034;-81
2022/07/11 01:58:33;;;;;;;7.47;1.95;;;;;;;;;;6072211;23;20024;-81
2022/07/11 02:01:00;;;;;;;10.70;2.30;;;;;;;;;;6070977;23;20027;-81
2022/07/11 02:03:28;;;;;;;5.35;1.70;;;;;;;;;;6071548;23;20023;-82
2022/07/11 02:05:57;;;;;;;9.48;1.90;;;;;;;;;;6070894;23;20015;-81
2022/07/11 02:08:24;;;;;;;5.85;1.70;;;;;;;;;;6070561;23;20106;-81
2022/07/11 02:10:52;;;;;;;5.35;1.77;;;;;;;;;;6072090;23;20469;-80
2022/07/11 02:13:20;;;;;;;6.75;2.10;;;;;;;;;;6071534;23;20809;-81
2022/07/11 02:15:49;;;;;;;7.25;2.28;;;;;;;;;;6071861;23;20051;-80
2022/07/11 02:18:16;;;;;;;8.00;1.83;;;;;;;;;;6046581;23;20026;-80
2022/07/11 02:20:45;;;;;;;6.63;2.00;;;;;;;;;;6072473;23;20099;-81
2022/07/11 02:23:15;;;;;;;6.40;1.90;;;;;;;;;;6071599;23;20035;-80
2022/07/11 02:25:42;;;;;;;8.70;2.00;;;;;;;;;;6070788;23;20023;-81
2022/07/11 02:28:09;;;;;;;5.47;1.98;;;;;;;;;;6071344;23;20026;-81
2022/07/11 02:30:39;;;;;;;5.40;1.77;;;;;;;;;;6071340;23;20063;-80
2022/07/11 02:33:07;;;;;;;4.60;1.60;;;;;;;;;;6070725;23;20066;-80
2022/07/11 02:35:37;;;;;;;3.72;1.67;;;;;;;;;;6071571;23;20059;-80
2022/07/11 02:38:04;;;;;;;5.38;1.85;;;;;;;;;;6045815;23;20028;-81
2022/07/11 02:40:31;;;;;;;7.40;2.08;;;;;;;;;;6070963;23;20027;-82
2022/07/11 02:42:58;;;;;;;7.20;1.67;;;;;;;;;;6070915;23;20034;-80
2022/07/11 02:45:26;;;;;;;7.78;2.20;;;;;;;;;;6071671;23;20071;-81
2022/07/11 02:47:53;;;;;;;6.05;1.58;;;;;;;;;;6071310;23;20170;-80
2022/07/11 02:50:20;;;;;;;6.75;1.73;;;;;;;;;;6071162;23;20055;-81
2022/07/11 02:52:47;;;;;;;3.75;1.67;;;;;;;;;;6071602;23;20844;-81
2022/07/11 02:55:15;;;;;;;5.90;1.75;;;;;;;;;;6070869;23;20117;-81
2022/07/11 02:57:42;;;;;;;9.10;1.60;;;;;;;;;;6070807;23;20359;-81
2022/07/11 03:00:15;;;;;;;6.57;1.75;;;;;;;;;;6071392;23;20027;-81
2022/07/11 03:02:42;;;;;;;6.72;1.73;;;;;;;;;;6071744;23;20110;-81
2022/07/11 03:05:09;;;;;;;6.80;1.70;;;;;;;;;;6073082;23;20027;-81
2022/07/11 03:07:36;;;;;;;6.75;1.80;;;;;;;;;;6072209;23;20028;-82
2022/07/11 03:10:04;;;;;;;5.25;1.90;;;;;;;;;;6071986;23;20106;-81
2022/07/11 03:12:31;;;;;;;9.10;1.83;;;;;;;;;;6046958;23;20028;-81
2022/07/11 03:14:58;;;;;;;8.13;1.90;;;;;;;;;;6046810;23;20111;-80
2022/07/11 03:17:25;;;;;;;7.63;1.83;;;;;;;;;;6073156;23;20095;-81
2022/07/11 03:19:52;;;;;;;3.38;1.60;;;;;;;;;;6072124;23;20027;-81
2022/07/11 03:22:19;;;;;;;5.97;1.73;;;;;;;;;;6072121;23;20054;-81
2022/07/11 03:24:46;;;;;;;6.72;1.70;;;;;;;;;;6072444;23;20095;-81
2022/07/11 03:27:14;;;;;;;5.50;1.58;;;;;;;;;;6073596;23;20027;-81
2022/07/11 03:29:41;;;;;;;6.20;1.58;;;;;;;;;;6073391;23;20027;-81
2022/07/11 03:32:10;;;;;;;9.98;1.60;;;;;;;;;;6072513;23;20131;-81
2022/07/11 03:35:40;;;;;;;7.80;1.80;;;;;;;;;;6072768;23;20024;-81
2022/07/11 03:37:28;;;;;;;6.43;1.85;;;;;;;;;;6073360;23;20026;-81
2022/07/11 03:39:56;;;;;;;5.70;1.98;;;;;;;;;;6046773;23;20036;-80
2022/07/11 03:42:30;;;;;;;6.13;1.60;;;;;;;;;;6072969;23;20110;-81
2022/07/11 03:44:57;;;;;;;8.60;2.63;;;;;;;;;;6072296;23;20028;-81
2022/07/11 03:47:24;;;;;;;5.15;1.75;;;;;;;;;;6071014;23;20026;-81
2022/07/11 03:49:51;;;;;;;7.38;1.63;;;;;;;;;;6072118;23;20038;-81
2022/07/11 03:52:18;;;;;;;8.68;2.05;;;;;;;;;;6071404;23;20027;-81
2022/07/11 03:54:45;;;;;;;11.18;2.10;;;;;;;;;;6072265;23;20063;-81
2022/07/11 03:57:12;;;;;;;9.23;2.17;;;;;;;;;;6071210;23;20026;-80
2022/07/11 03:59:39;;;;;;;7.28;2.00;;;;;;;;;;6072995;23;20066;-80
2022/07/11 04:02:06;;;;;;;9.50;1.88;;;;;;;;;;6072866;23;20599;-81
2022/07/11 04:04:34;;;;;;;13.35;2.40;;;;;;;;;;6072621;23;20059;-82
2022/07/11 04:07:01;;;;;;;10.85;2.33;;;;;;;;;;6072108;23;20129;-80
2022/07/11 04:09:28;;;;;;;10.77;2.47;;;;;;;;;;6045789;23;20027;-81
2022/07/11 04:11:55;;;;;;;8.68;2.50;;;;;;;;;;6072521;23;20040;-81
2022/07/11 04:14:22;;;;;;;9.15;2.38;;;;;;;;;;6072270;23;20449;-81
2022/07/11 04:16:51;;;;;;;12.20;2.22;;;;;;;;;;6047285;23;20073;-81
2022/07/11 04:19:19;;;;;;;13.60;3.13;;;;;;;;;;6071776;23;20342;-80
2022/07/11 04:21:46;;;;;;;8.13;2.20;;;;;;;;;;6072082;23;20054;-81
2022/07/11 04:24:15;;;;;;;9.73;2.63;;;;;;;;;;6072269;23;20082;-81
2022/07/11 04:26:43;;;;;;;11.70;2.83;;;;;;;;;;6071859;23;20099;-80
2022/07/11 04:29:11;;;;;;;5.68;2.30;;;;;;;;;;6072423;23;20476;-81
2022/07/11 04:31:41;;;;;;;6.28;2.40;;;;;;;;;;6072038;23;20034;-81
2022/07/11 04:34:08;;;;;;;7.30;2.53;;;;;;;;;;6072406;23;20034;-80
2022/07/11 04:36:35;;;;;;;5.70;2.10;;;;;;;;;;6071410;23;20024;-81
2022/07/11 04:39:03;;;;;;;6.45;2.33;;;;;;;;;;6071434;23;20034;-80
2022/07/11 04:41:30;;;;;;;7.03;2.38;;;;;;;;;;6072439;23;20027;-81
2022/07/11 04:43:57;;;;;;;5.00;2.38;;;;;;;;;;6071853;23;20748;-81
2022/07/11 04:46:24;;;;;;;8.13;2.40;;;;;;;;;;6073112;23;20028;-81
2022/07/11 04:48:51;;;;;;;4.53;2.20;;;;;;;;;;6071242;23;20015;-80
2022/07/11 04:51:18;;;;;;;8.75;2.50;;;;;;;;;;6071196;23;20839;-81
2022/07/11 04:53:46;;;;;;;10.52;2.95;;;;;;;;;;6072315;23;21187;-80
2022/07/11 04:56:13;;;;;;;5.20;2.20;;;;;;;;;;6044336;23;20034;-80
2022/07/11 04:58:40;;;;;;;4.78;2.05;;;;;;;;;;6071281;23;20114;-81
2022/07/11 05:01:07;;;;;;;5.78;2.22;;;;;;;;;;6070723;23;20099;-81
2022/07/11 05:03:35;;;;;;;3.92;2.00;;;;;;;;;;6073291;23;20110;-80
2022/07/11 05:06:03;;;;;;;8.85;2.38;;;;;;;;;;6072253;23;20023;-80
2022/07/11 05:08:30;;;;;;;3.72;2.10;;;;;;;;;;6071983;23;20030;-82
2022/07/11 05:10:57;;;;;;;8.95;2.50;;;;;;;;;;6069991;23;20099;-80
2022/07/11 05:13:24;;;;;;;8.30;2.50;;;;;;;;;;6072544;23;20083;-80
2022/07/11 05:15:52;;;;;;;6.40;2.17;;;;;;;;;;6072369;23;20027;-81
2022/07/11 05:18:19;;;;;;;5.30;2.15;;;;;;;;;;6047175;23;20031;-80
2022/07/11 05:20:48;;;;;;;4.45;2.20;;;;;;;;;;6072826;23;20024;-83
2022/07/11 05:23:16;;;;;;;7.95;2.55;;;;;;;;;;6073026;23;20094;-81
2022/07/11 05:25:43;;;;;;;5.32;2.50;;;;;;;;;;6071389;23;20034;-80
2022/07/11 05:28:10;;;;;;;5.68;2.35;;;;;;;;;;6074684;23;20011;-81
2022/07/11 05:30:37;;;;;;;5.75;2.47;;;;;;;;;;6073585;23;20800;-81
2022/07/11 05:33:04;;;;;;;7.75;2.30;;;;;;;;;;6073812;23;20809;-81
2022/07/11 05:35:31;;;;;;;9.40;2.50;;;;;;;;;;6072870;23;20085;-81
2022/07/11 05:37:58;;;;;;;6.97;2.88;;;;;;;;;;6072848;23;20829;-80
2022/07/11 05:40:25;;;;;;;6.25;2.55;;;;;;;;;;6048245;23;20106;-81
2022/07/11 05:42:52;;;;;;;8.80;2.67;;;;;;;;;;6073756;23;20050;-81
2022/07/11 05:45:20;;;;;;;7.05;2.90;;;;;;;;;;6069509;23;20081;-81
2022/07/11 05:47:47;;;;;;;5.03;2.92;;;;;;;;;;6046079;23;20099;-81
2022/07/11 05:50:14;;;;;;;7.10;2.65;;;;;;;;;;6070094;23;20027;-82
2022/07/11 05:52:41;;;;;;;6.50;2.90;;;;;;;;;;6046958;23;20029;-81
2022/07/11 05:55:08;;;;;;;6.80;2.30;;;;;;;;;;6071772;23;20058;-81
2022/07/11 05:57:44;;;;;;;4.90;2.45;;;;;;;;;;6073870;23;20698;-81
2022/07/11 06:00:11;;;;;;;4.75;2.10;;;;;;;;;;6054467;23;20023;-82
2022/07/11 06:02:38;;;;;;;3.40;1.90;;;;;;;;;;6076724;23;20083;-81
2022/07/11 06:05:06;;;;;;;3.65;2.15;;;;;;;;;;6076747;23;20019;-81
2022/07/11 06:10:26;;;;;;;4.40;2.08;;;;;;;;;;6072450;23;20027;-81
2022/07/11 06:12:53;;;;;;;3.65;1.75;;;;;;;;;;6071599;23;20057;-81
2022/07/11 06:15:20;;;;;;;3.95;1.70;;;;;;;;;;6072490;23;20061;-81
2022/07/11 06:17:50;;;;;;;4.22;1.90;;;;;;;;;;6072455;23;20034;-81
2022/07/11 06:20:17;;;;;;;2.78;1.20;;;;;;;;;;6071314;23;20045;-81
2022/07/11 06:22:45;;;;;;;2.15;1.30;;;;;;;;;;6072023;23;20023;-81
2022/07/11 06:25:12;;;;;;;2.25;1.27;;;;;;;;;;6072191;23;20061;-81
2022/07/11 06:27:39;;;;;;;1.83;1.10;;;;;;;;;;6074464;23;21139;-81
2022/07/11 06:30:06;;;;;;;2.63;1.00;;;;;;;;;;6075789;23;20022;-82
2022/07/11 06:32:36;;;;;;;2.10;1.00;;;;;;;;;;6076298;23;20028;-81
2022/07/11 06:35:03;;;;;;;0.80;0.80;;;;;;;;;;6073859;23;20079;-81
2022/07/11 06:37:30;;;;;;;0.88;0.88;;;;;;;;;;6076696;23;20781;-81
2022/07/11 06:39:57;;;;;;;1.63;0.90;;;;;;;;;;6076223;23;20012;-81
2022/07/11 06:42:25;;;;;;;2.72;0.77;;;;;;;;;;6077152;23;20019;-82
2022/07/11 06:44:52;;;;;;;2.50;0.98;;;;;;;;;;6075259;23;20031;-81
2022/07/11 06:47:19;;;;;;;2.03;0.90;;;;;;;;;;6076261;23;20044;-81
2022/07/11 06:49:46;;;;;;;2.10;0.98;;;;;;;;;;6074426;23;20817;-82
2022/07/11 06:52:40;;;;;;;2.70;1.05;;;;;;;;;;6072274;23;20119;-82
2022/07/11 06:55:07;;;;;;;1.55;0.88;;;;;;;;;;6073263;23;20033;-81
2022/07/11 06:57:34;;;;;;;1.15;0.70;;;;;;;;;;6070285;23;20027;-81
2022/07/11 07:00:01;;;;;;;1.48;0.65;;;;;;;;;;6071180;23;20027;-82
2022/07/11 07:02:30;;;;;;;0.50;0.50;;;;;;;;;;6046308;23;20055;-81
2022/07/11 07:05:01;;;;;;;2.00;0.52;;;;;;;;;;6071670;23;20055;-82
2022/07/11 07:07:28;;;;;;;0.80;0.50;;;;;;;;;;6072603;23;20031;-81
2022/07/11 07:09:55;;;;;;;0.47;0.30;;;;;;;;;;6073067;23;20571;-81
2022/07/11 07:12:22;;;;;;;0.50;0.50;;;;;;;;;;6072918;23;20102;-82
2022/07/11 07:14:50;;;;;;;0.40;0.40;;;;;;;;;;6070277;23;20029;-81
2022/07/11 07:17:17;;;;;;;1.55;0.40;;;;;;;;;;6071609;23;20677;-82
2022/07/11 07:19:44;;;;;;;0.60;0.60;;;;;;;;;;6072013;23;20163;-82
2022/07/11 07:22:14;;;;;;;0.52;0.52;;;;;;;;;;6071536;23;20023;-82
2022/07/11 07:24:41;;;;;;;0.80;0.55;;;;;;;;;;6072258;23;20034;-81
2022/07/11 07:27:08;;;;;;;1.50;0.80;;;;;;;;;;6072813;23;20028;-81
2022/07/11 07:29:42;;;;;;;0.45;0.45;;;;;;;;;;6070948;23;20107;-82
2022/07/11 07:32:09;;;;;;;0.55;0.43;;;;;;;;;;6071885;23;20106;-82
2022/07/11 07:34:36;;;;;;;0.60;0.40;;;;;;;;;;6072170;23;20030;-81
2022/07/11 07:37:03;;;;;;;0.40;0.40;;;;;;;;;;6071061;23;20042;-81
2022/07/11 07:39:30;;;;;;;0.55;0.45;;;;;;;;;;6070878;23;20024;-82
2022/07/11 07:41:58;;;;;;;1.73;0.68;;;;;;;;;;6070823;23;20020;-82
2022/07/11 07:44:25;;;;;;;0.50;0.50;;;;;;;;;;6070800;23;20047;-82
2022/07/11 07:46:52;;;;;;;0.30;0.30;;;;;;;;;;6070615;23;20043;-82
2022/07/11 07:49:19;;;;;;;0.73;0.50;;;;;;;;;;6070847;23;20058;-84
2022/07/11 07:51:46;;;;;;;0.43;0.40;;;;;;;;;;6071925;23;20027;-81
2022/07/11 07:54:13;;;;;;;1.15;1.05;;;;;;;;;;6072432;23;20051;-81
2022/07/11 07:56:41;;;;;;;1.20;0.73;;;;;;;;;;6072502;23;20031;-81
2022/07/11 07:59:08;;;;;;;0.65;0.60;;;;;;;;;;6071162;23;20372;-80
2022/07/11 08:01:35;;;;;;;0.55;0.55;;;;;;;;;;6071417;23;20031;-80
2022/07/11 08:04:06;;;;;;;0.57;0.40;;;;;;;;;;6072885;23;20023;-80
2022/07/11 08:06:34;;;;;;;0.82;0.45;;;;;;;;;;6046532;23;20079;-80
2022/07/11 08:09:02;;;;;;;1.55;0.50;;;;;;;;;;6071360;23;20016;-80
2022/07/11 08:11:30;;;;;;;0.70;0.60;;;;;;;;;;6071873;23;20023;-81
2022/07/11 08:14:04;;;;;;;0.80;0.50;;;;;;;;;;6071267;23;20020;-83
2022/07/11 08:16:31;;;;;;;;;;;;;;;;;;6071200;23;20031;-80
2022/07/11 08:18:59;;;;;;;1.13;0.70;;;;;;;;;;6070334;23;44252;-84
2022/07/11 08:21:27;;;;;;;1.80;0.50;;;;;;;;;;6072181;23;20019;-82
2022/07/11 08:23:55;;;;;;;4.47;0.55;;;;;;;;;;6071839;23;20027;-83
2022/07/11 08:26:24;;;;;;;2.67;0.90;;;;;;;;;;6046208;23;20018;-83
2022/07/11 08:28:59;;;;;;;0.52;0.52;;;;;;;;;;6072066;23;20083;-83
2022/07/11 08:31:26;;;;;;;2.58;0.55;;;;;;;;;;6045202;23;20067;-83
2022/07/11 08:33:54;;;;;;;0.65;0.65;;;;;;;;;;6071522;23;20019;-82
2022/07/11 08:36:21;;;;;;;0.55;0.50;;;;;;;;;;6071127;23;20031;-83
2022/07/11 08:38:48;;;;;;;1.67;0.57;;;;;;;;;;6069511;23;20771;-81
2022/07/11 08:41:18;;;;;;;0.60;0.60;;;;;;;;;;6069782;23;20029;-82
2022/07/11 08:43:46;;;;;;;0.93;0.80;;;;;;;;;;6068380;23;20031;-82
2022/07/11 08:46:14;;;;;;;0.50;0.50;;;;;;;;;;6044147;23;20035;-82
2022/07/11 08:48:45;;;;;;;0.98;0.75;;;;;;;;;;6068811;23;20828;-82
2022/07/11 08:51:13;;;;;;;2.75;0.80;;;;;;;;;;6069001;23;20039;-82
2022/07/11 08:53:43;;;;;;;1.08;0.70;;;;;;;;;;6069373;23;20027;-82
2022/07/11 08:56:17;;;;;;;2.55;0.98;;;;;;;;;;6068790;23;20031;-80
2022/07/11 08:58:46;;;;;;;0.80;0.80;;;;;;;;;;6069260;23;20027;-79
2022/07/11 09:01:20;;;;;;;2.80;0.95;;;;;;;;;;6069861;23;20079;-83
2022/07/11 09:03:48;;;;;;;3.17;0.80;;;;;;;;;;6076463;23;20015;-81
2022/07/11 09:06:16;;;;;;;0.70;0.70;;;;;;;;;;6072752;23;20024;-82
2022/07/11 09:08:43;;;;;;;1.33;0.80;;;;;;;;;;6069706;23;20767;-81
2022/07/11 09:11:11;;;;;;;7.10;0.93;;;;;;;;;;6070384;23;20528;-82
2022/07/11 09:13:39;;;;;;;2.78;0.90;;;;;;;;;;6045115;23;20015;-81
2022/07/11 09:16:07;;;;;;;1.02;0.60;;;;;;;;;;6069128;23;20027;-82
2022/07/11 09:18:41;;;;;;;1.55;0.50;;;;;;;;;;6069699;23;20027;-82
2022/07/11 09:26:48;;;;;;;0.88;0.80;;;;;;;;;;6069781;23;20031;-82
2022/07/11 09:29:16;;;;;;;1.60;0.70;;;;;;;;;;6068361;23;20057;-82
2022/07/11 09:31:47;;;;;;;0.75;0.60;;;;;;;;;;6043625;23;20024;-81
2022/07/11 09:34:18;;;;;;;0.70;0.70;;;;;;;;;;6044026;23;20074;-81
2022/07/11 09:36:51;;;;;;;1.52;0.80;;;;;;;;;;6069655;23;20098;-83
2022/07/11 09:39:19;;;;;;;0.70;0.50;;;;;;;;;;6069323;23;20038;-81
2022/07/11 09:41:47;;;;;;;0.65;0.57;;;;;;;;;;6069401;23;20043;-83
2022/07/11 09:44:14;;;;;;;2.38;1.05;;;;;;;;;;6069781;23;20050;-81
2022/07/11 09:46:42;;;;;;;0.75;0.50;;;;;;;;;;6068617;23;20035;-83
2022/07/11 09:49:09;;;;;;;0.60;0.60;;;;;;;;;;6044024;23;20106;-81
2022/07/11 09:51:39;;;;;;;0.40;0.40;;;;;;;;;;6069077;23;20140;-80
2022/07/11 09:54:07;;;;;;;0.35;0.35;;;;;;;;;;6069656;23;20023;-80
2022/07/11 09:56:41;;;;;;;0.40;0.40;;;;;;;;;;6068731;23;20033;-81
2022/07/11 09:59:24;;;;;;;0.80;0.50;;;;;;;;;;6046799;23;20019;-82
2022/07/11 10:01:51;;;;;;;2.30;0.60;;;;;;;;;;6069407;23;20027;-83
2022/07/11 10:04:19;;;;;;;0.70;0.60;;;;;;;;;;6069470;23;20502;-81
2022/07/11 10:06:46;;;;;;;0.60;0.60;;;;;;;;;;6069544;23;20027;-82
2022/07/11 10:09:13;;;;;;;0.80;0.65;;;;;;;;;;6043308;23;20095;-81
2022/07/11 10:11:40;;;;;;;0.55;0.55;;;;;;;;;;6068647;23;20102;-82
2022/07/11 10:14:07;;;;;;;1.23;0.80;;;;;;;;;;6043825;23;20507;-82
2022/07/11 10:16:40;;;;;;;2.05;0.77;;;;;;;;;;6043850;23;20090;-82
2022/07/11 10:19:22;;;;;;;1.80;0.80;;;;;;;;;;6069302;23;20035;-81
2022/07/11 10:22:08;;;;;;;0.68;0.68;;;;;;;;;;6068994;23;20103;-81
2022/07/11 10:24:46;;;;;;;0.65;0.65;;;;;;;;;;6068423;23;20038;-80
2022/07/11 10:27:21;;;;;;;0.65;0.50;;;;;;;;;;6068228;23;20801;-82
2022/07/11 10:29:50;;;;;;;1.27;0.60;;;;;;;;;;6045288;23;21291;-81
2022/07/11 10:32:20;;;;;;;2.15;0.65;;;;;;;;;;6045633;23;20028;-82
2022/07/11 10:35:08;;;;;;;1.00;0.70;;;;;;;;;;6069208;23;20024;-82
2022/07/11 10:37:51;;;;;;;0.95;0.68;;;;;;;;;;6068455;23;20728;-83
2022/07/11 10:40:37;;;;;;;1.17;0.73;;;;;;;;;;6068221;23;20058;-81
2022/07/11 10:43:06;;;;;;;3.95;0.80;;;;;;;;;;6043009;23;20027;-82
2022/07/11 10:45:55;;;;;;;5.43;0.80;;;;;;;;;;6068492;23;20024;-81
2022/07/11 10:48:23;;;;;;;0.50;0.50;;;;;;;;;;6068442;23;20058;-81
2022/07/11 10:51:09;;;;;;;0.45;0.45;;;;;;;;;;6069603;23;20036;-81
2022/07/11 10:53:40;;;;;;;1.98;0.73;;;;;;;;;;6071332;23;21037;-82
2022/07/11 10:56:19;;;;;;;0.70;0.70;;;;;;;;;;6071706;23;20016;-82
2022/07/11 10:59:09;;;;;;;0.55;0.55;;;;;;;;;;6071690;23;20054;-80
2022/07/11 11:01:36;;;;;;;0.70;0.52;;;;;;;;;;6071856;23;20019;-83
2022/07/11 11:04:23;;;;;;;1.20;0.60;;;;;;;;;;6072153;23;20083;-83
2022/07/11 11:06:57;;;;;;;2.42;0.40;;;;;;;;;;6062908;23;20027;-82
2022/07/11 11:09:38;;;;;;;0.50;0.50;;;;;;;;;;6047088;23;20086;-82
2022/07/11 11:12:05;;;;;;;4.25;0.60;;;;;;;;;;6045858;23;20027;-82
2022/07/11 11:14:32;;;;;;;2.47;0.63;;;;;;;;;;6071490;23;20789;-81
2022/07/11 11:17:18;;;;;;;0.77;0.60;;;;;;;;;;6075073;23;20026;-83
2022/07/11 11:19:52;;;;;;;1.08;0.60;;;;;;;;;;6072020;23;20110;-82
2022/07/11 11:22:20;;;;;;;0.82;0.60;;;;;;;;;;6070864;23;20030;-82
2022/07/11 11:24:48;;;;;;;0.70;0.70;;;;;;;;;;6070195;23;20023;-80
2022/07/11 11:27:36;;;;;;;0.52;0.52;;;;;;;;;;6071399;23;20027;-83
2022/07/11 11:30:05;;;;;;;0.50;0.50;;;;;;;;;;6072986;23;20706;-80
2022/07/11 11:32:36;;;;;;;4.68;0.50;;;;;;;;;;6074087;23;20477;-81
2022/07/11 11:35:05;;;;;;;0.50;0.50;;;;;;;;;;6072416;23;20019;-82
2022/07/11 11:37:34;;;;;;;1.13;0.70;;;;;;;;;;6045328;23;20087;-80
2022/07/11 11:40:01;;;;;;;0.40;0.40;;;;;;;;;;6070070;23;20062;-82
2022/07/11 11:42:30;;;;;;;0.55;0.55;;;;;;;;;;6070390;23;20027;-82
2022/07/11 11:45:07;;;;;;;5.00;0.52;;;;;;;;;;6068793;23;20067;-84
2022/07/11 11:47:37;;;;;;;0.95;0.55;;;;;;;;;;6069788;23;20087;-82
2022/07/11 11:50:04;;;;;;;2.38;0.65;;;;;;;;;;6070382;23;20023;-82
2022/07/11 11:52:33;;;;;;;1.65;0.47;;;;;;;;;;6043501;23;20114;-82
2022/07/11 11:55:00;;;;;;;0.82;0.50;;;;;;;;;;6068285;23;20019;-84
2022/07/11 11:57:29;;;;;;;0.80;0.38;;;;;;;;;;6068958;23;20828;-83
2022/07/11 11:59:58;;;;;;;2.28;0.50;;;;;;;;;;6068729;23;20118;-82
2022/07/11 12:02:28;;;;;;;0.40;0.40;;;;;;;;;;6067872;23;20083;-83
2022/07/11 12:04:58;;;;;;;0.77;0.60;;;;;;;;;;6044661;23;21127;-82
2022/07/11 12:07:27;;;;;;;1.35;0.80;;;;;;;;;;6069530;23;20029;-82
2022/07/11 12:10:04;;;;;;;2.05;0.60;;;;;;;;;;6072169;23;20473;-83
2022/07/11 12:12:43;;;;;;;1.50;0.65;;;;;;;;;;6071419;23;20023;-83
2022/07/11 12:15:27;;;;;;;1.25;0.70;;;;;;;;;;6074960;23;20035;-83
2022/07/11 12:17:59;;;;;;;0.65;0.65;;;;;;;;;;6073177;23;20030;-83
2022/07/11 12:20:33;;;;;;;0.55;0.50;;;;;;;;;;6073039;23;20091;-83
2022/07/11 12:23:01;;;;;;;1.05;0.60;;;;;;;;;;6048384;23;20753;-83
2022/07/11 12:25:37;;;;;;;2.38;0.52;;;;;;;;;;6073913;23;20032;-82
2022/07/11 12:28:08;;;;;;;0.70;0.50;;;;;;;;;;6071474;23;20156;-84
2022/07/11 12:30:35;;;;;;;2.72;0.60;;;;;;;;;;6047337;23;20331;-83
2022/07/11 12:33:03;;;;;;;0.57;0.57;;;;;;;;;;6070323;23;20031;-83
2022/07/11 12:35:30;;;;;;;0.43;0.43;;;;;;;;;;6071375;23;20023;-83
2022/07/11 12:37:57;;;;;;;0.63;0.63;;;;;;;;;;6073666;23;20742;-83
2022/07/11 12:40:28;;;;;;;1.45;0.55;;;;;;;;;;6073647;23;20146;-83
2022/07/11 12:44:56;;;;;;;0.45;0.45;;;;;;;;;;6072233;23;20027;-84
2022/07/11 12:46:00;;;;;;;0.57;0.50;;;;;;;;;;6077572;23;20892;-82
2022/07/11 12:48:48;;;;;;;;;;;;;;;;;;;;;
2022/07/11 12:51:39;;;;;;;2.92;0.55;;;;;;;;;;6071674;23;20032;-81
2022/07/11 12:54:10;;;;;;;0.55;0.52;;;;;;;;;;6045456;23;20054;-82
2022/07/11 12:56:37;;;;;;;0.50;0.50;;;;;;;;;;6071559;23;20079;-81
2022/07/11 12:59:05;;;;;;;0.82;0.40;;;;;;;;;;6069546;23;20020;-82
2022/07/11 13:01:37;;;;;;;0.47;0.47;;;;;;;;;;6062792;23;20023;-82
2022/07/11 13:04:04;;;;;;;2.00;0.40;;;;;;;;;;6068408;23;20020;-83
2022/07/11 13:09:20;;;;;;;2.97;0.57;;;;;;;;;;6070838;23;20050;-83
2022/07/11 13:11:47;;;;;;;0.80;0.45;;;;;;;;;;6071471;23;20114;-84
2022/07/11 13:17:01;;;;;;;0.90;0.50;;;;;;;;;;6071646;23;20852;-84
2022/07/11 13:19:28;;;;;;;0.60;0.60;;;;;;;;;;6072055;23;20561;-83
2022/07/11 13:21:55;;;;;;;1.13;0.50;;;;;;;;;;6073187;23;20756;-80
2022/07/11 13:24:26;;;;;;;0.70;0.50;;;;;;;;;;6070282;23;20124;-83
2022/07/11 13:26:56;;;;;;;2.85;0.60;;;;;;;;;;6068346;23;20059;-83
2022/07/11 13:29:23;;;;;;;0.73;0.60;;;;;;;;;;6071142;23;20093;-83
2022/07/11 13:31:50;;;;;;;3.10;0.60;;;;;;;;;;6069743;23;20809;-82
2022/07/11 13:34:23;;;;;;;0.93;0.65;;;;;;;;;;6071185;23;20513;-86
2022/07/11 13:36:51;;;;;;;3.63;0.70;;;;;;;;;;6071664;23;20031;-82
2022/07/11 13:39:18;;;;;;;1.55;0.68;;;;;;;;;;6071611;23;20770;-82
2022/07/11 13:41:46;;;;;;;0.75;0.50;;;;;;;;;;6072406;23;20008;-82
2022/07/11 13:44:13;;;;;;;1.75;0.70;;;;;;;;;;6070116;23;20100;-81
2022/07/11 13:46:43;;;;;;;1.95;0.90;;;;;;;;;;6070844;23;20031;-82
2022/07/11 13:49:12;;;;;;;0.50;0.50;;;;;;;;;;6069465;23;20019;-82
2022/07/11 13:51:39;;;;;;;3.28;0.70;;;;;;;;;;6069341;23;20533;-83
2022/07/11 13:54:09;;;;;;;4.75;0.80;;;;;;;;;;6069868;23;20030;-83
2022/07/11 13:56:37;;;;;;;1.00;0.70;;;;;;;;;;6068804;23;20478;-83
2022/07/11 13:59:04;;;;;;;0.75;0.70;;;;;;;;;;6068105;23;20038;-82
2022/07/11 14:01:31;;;;;;;1.42;0.70;;;;;;;;;;6068936;23;20024;-84
2022/07/11 14:03:59;;;;;;;3.47;1.02;;;;;;;;;;6068686;23;20026;-82
2022/07/11 14:06:26;;;;;;;2.08;0.80;;;;;;;;;;6044741;23;20019;-82
2022/07/11 14:09:13;;;;;;;3.70;0.80;;;;;;;;;;6069185;23;20079;-83
2022/07/11 14:11:41;;;;;;;0.73;0.73;;;;;;;;;;6070368;23;20043;-82
2022/07/11 14:14:08;;;;;;;0.70;0.57;;;;;;;;;;6069341;23;20023;-83
2022/07/11 14:16:35;;;;;;;2.47;0.80;;;;;;;;;;6043314;23;20026;-82
2022/07/11 14:19:07;;;;;;;1.67;0.70;;;;;;;;;;6068822;23;20032;-83
2022/07/11 14:21:34;;;;;;;1.02;0.88;;;;;;;;;;6046974;23;20042;-83
2022/07/11 14:24:05;;;;;;;5.07;0.90;;;;;;;;;;6071082;23;20027;-82
2022/07/11 14:26:32;;;;;;;2.83;0.70;;;;;;;;;;6070988;23;20019;-82
2022/07/11 14:29:00;;;;;;;0.50;0.50;;;;;;;;;;6071900;23;20030;-82
2022/07/11 14:31:31;;;;;;;1.42;0.60;;;;;;;;;;6048666;23;20377;-82
2022/07/11 14:34:00;;;;;;;0.88;0.68;;;;;;;;;;6071778;23;20023;-83
2022/07/11 14:36:27;;;;;;;1.92;0.70;;;;;;;;;;6072466;23;20798;-83
2022/07/11 14:38:55;;;;;;;1.75;0.70;;;;;;;;;;6072286;23;20027;-80
2022/07/11 14:41:25;;;;;;;1.08;0.80;;;;;;;;;;6071629;23;20774;-84
2022/07/11 14:43:53;;;;;;;1.95;0.60;;;;;;;;;;6071733;23;20015;-81
2022/07/11 14:46:22;;;;;;;3.65;0.90;;;;;;;;;;6072565;23;20019;-82
2022/07/11 14:48:49;;;;;;;1.63;0.93;;;;;;;;;;6071274;23;20030;-83
2022/07/11 14:51:16;;;;;;;1.00;0.85;;;;;;;;;;6071803;23;20728;-83
2022/07/11 14:54:03;;;;;;;1.65;0.73;;;;;;;;;;6069330;23;20066;-82
2022/07/11 14:56:32;;;;;;;1.00;0.73;;;;;;;;;;6071322;23;20063;-81
2022/07/11 14:59:01;;;;;;;1.30;0.70;;;;;;;;;;6045151;23;20370;-83
2022/07/11 15:01:28;;;;;;;4.70;0.80;;;;;;;;;;6072268;23;20123;-85
2022/07/11 15:03:55;;;;;;;0.93;0.60;;;;;;;;;;6071326;23;20094;-83
2022/07/11 15:12:20;;;;;;;1.88;0.90;;;;;;;;;;6072032;23;20833;-83
2022/07/11 15:14:42;;;;;;;1.50;0.80;;;;;;;;;;6073355;23;20086;-82